createdAt,value
2023-05-20T00:01:04.193Z,8.40
2023-05-20T00:03:31.998Z,14.60
2023-05-20T00:05:59.813Z,14.90
2023-05-20T00:08:27.476Z,11.00
2023-05-20T00:10:55.160Z,12.10
2023-05-20T00:13:24.223Z,12.10
2023-05-20T00:15:53.511Z,11.70
2023-05-20T00:18:21.201Z,12.50
2023-05-20T00:20:48.883Z,13.50
2023-05-20T00:23:16.545Z,11.80
2023-05-20T00:25:44.221Z,10.00
2023-05-20T00:28:12.021Z,10.30
2023-05-20T00:30:42.832Z,13.10
2023-05-20T00:33:10.626Z,14.00
2023-05-20T00:35:38.265Z,12.30
2023-05-20T00:38:05.977Z,13.10
2023-05-20T00:40:33.952Z,13.30
2023-05-20T00:43:01.610Z,14.30
2023-05-20T00:45:29.371Z,12.80
2023-05-20T00:47:59.744Z,13.50
2023-05-20T00:50:28.278Z,12.60
2023-05-20T00:52:55.936Z,11.90
2023-05-20T00:55:23.706Z,12.30
2023-05-20T00:57:53.791Z,11.90
2023-05-20T01:00:21.477Z,11.90
2023-05-20T01:02:49.627Z,10.00
2023-05-20T01:05:17.533Z,13.20
2023-05-20T01:07:45.460Z,11.90
2023-05-20T01:10:13.563Z,10.60
2023-05-20T01:12:57.027Z,13.60
2023-05-20T01:15:27.972Z,13.10
2023-05-20T01:18:01.629Z,13.00
2023-05-20T01:20:32.680Z,13.30
2023-05-20T01:23:00.622Z,13.00
2023-05-20T01:25:28.475Z,11.30
2023-05-20T01:27:58.175Z,11.50
2023-05-20T01:30:39.758Z,11.70
2023-05-20T01:33:12.413Z,10.50
2023-05-20T01:35:41.859Z,11.60
2023-05-20T01:38:09.875Z,12.00
2023-05-20T01:40:39.291Z,10.80
2023-05-20T01:43:08.396Z,12.10
2023-05-20T01:45:36.454Z,12.50
2023-05-20T01:48:04.932Z,10.70
2023-05-20T01:50:32.651Z,10.60
2023-05-20T01:53:00.390Z,9.60
2023-05-20T01:55:28.117Z,9.80
2023-05-20T01:57:55.988Z,11.70
2023-05-20T02:00:23.724Z,12.00
2023-05-20T02:02:51.546Z,10.30
2023-05-20T02:05:19.488Z,10.20
2023-05-20T02:07:47.177Z,11.50
2023-05-20T02:10:14.963Z,10.00
2023-05-20T02:12:43.149Z,10.10
2023-05-20T02:15:11.165Z,8.90
2023-05-20T02:17:39.832Z,8.20
2023-05-20T02:20:08.660Z,8.30
2023-05-20T02:22:36.647Z,9.00
2023-05-20T02:25:05.084Z,5.80
2023-05-20T02:27:32.842Z,8.00
2023-05-20T02:30:01.371Z,5.50
2023-05-20T02:32:29.706Z,8.30
2023-05-20T02:34:57.397Z,6.40
2023-05-20T02:37:25.060Z,7.10
2023-05-20T02:39:52.745Z,6.80
2023-05-20T02:42:20.661Z,8.10
2023-05-20T02:44:48.358Z,8.30
2023-05-20T02:47:16.355Z,8.00
2023-05-20T02:49:44.217Z,5.80
2023-05-20T02:52:11.983Z,7.80
2023-05-20T02:54:39.636Z,8.10
2023-05-20T02:57:07.407Z,8.40
2023-05-20T02:59:35.037Z,8.00
2023-05-20T03:02:03.341Z,8.20
2023-05-20T03:04:31.761Z,8.50
2023-05-20T03:06:59.569Z,9.10
2023-05-20T03:09:27.321Z,9.60
2023-05-20T03:11:55.300Z,10.60
2023-05-20T03:14:22.995Z,11.00
2023-05-20T03:16:50.712Z,10.00
2023-05-20T03:19:28.501Z,11.20
2023-05-20T03:22:02.484Z,7.50
2023-05-20T03:24:30.180Z,9.80
2023-05-20T03:26:57.843Z,11.40
2023-05-20T03:29:25.607Z,12.10
2023-05-20T03:31:53.608Z,9.90
2023-05-20T03:34:21.413Z,10.10
2023-05-20T03:36:51.800Z,10.90
2023-05-20T03:39:19.450Z,11.10
2023-05-20T03:41:47.141Z,12.10
2023-05-20T03:44:14.779Z,11.30
2023-05-20T03:46:42.550Z,11.10
2023-05-20T03:49:10.367Z,14.00
2023-05-20T03:51:38.194Z,12.10
2023-05-20T03:54:05.861Z,10.70
2023-05-20T03:56:33.657Z,11.30
2023-05-20T03:59:01.471Z,11.80
2023-05-20T04:01:29.158Z,11.40
2023-05-20T04:03:57.186Z,10.00
2023-05-20T04:06:24.914Z,10.40
2023-05-20T04:08:53.068Z,10.10
2023-05-20T04:11:21.493Z,12.40
2023-05-20T04:13:49.101Z,12.00
2023-05-20T04:16:16.941Z,12.90
2023-05-20T04:18:46.053Z,13.20
2023-05-20T04:21:14.091Z,13.20
2023-05-20T04:23:42.076Z,12.30
2023-05-20T04:26:09.767Z,12.70
2023-05-20T04:28:37.853Z,11.40
2023-05-20T04:31:05.781Z,11.80
2023-05-20T04:33:38.109Z,12.30
2023-05-20T04:36:09.890Z,11.20
2023-05-20T04:38:38.500Z,11.00
2023-05-20T04:41:07.161Z,11.30
2023-05-20T04:43:34.959Z,11.10
2023-05-20T04:46:06.211Z,10.10
2023-05-20T04:48:34.592Z,10.40
2023-05-20T04:51:02.346Z,8.10
2023-05-20T04:53:34.025Z,8.70
2023-05-20T04:56:03.223Z,6.10
2023-05-20T04:58:31.758Z,6.20
2023-05-20T05:00:59.525Z,6.40
2023-05-20T05:03:27.234Z,6.60
2023-05-20T05:05:59.085Z,6.70
2023-05-20T05:08:26.913Z,5.30
2023-05-20T05:10:54.906Z,5.50
2023-05-20T05:13:22.641Z,6.20
2023-05-20T05:16:02.748Z,5.80
2023-05-20T05:18:30.482Z,6.60
2023-05-20T05:21:06.659Z,5.70
2023-05-20T05:23:34.346Z,5.90
2023-05-20T05:26:02.053Z,6.10
2023-05-20T05:28:30.143Z,5.90
2023-05-20T05:30:57.944Z,6.30
2023-05-20T05:33:25.989Z,5.60
2023-05-20T05:35:54.210Z,5.80
2023-05-20T05:38:21.955Z,6.60
2023-05-20T05:40:49.620Z,6.80
2023-05-20T05:43:17.450Z,6.90
2023-05-20T05:45:45.304Z,6.40
2023-05-20T05:48:13.022Z,7.20
2023-05-20T05:50:46.182Z,5.30
2023-05-20T05:53:13.928Z,6.20
2023-05-20T05:55:41.686Z,7.20
2023-05-20T05:58:09.361Z,6.60
2023-05-20T06:00:37.067Z,9.00
2023-05-20T06:03:04.958Z,9.30
2023-05-20T06:05:33.275Z,9.70
2023-05-20T06:08:01.359Z,8.40
2023-05-20T06:10:29.064Z,9.10
2023-05-20T06:12:56.771Z,8.40
2023-05-20T06:15:24.601Z,8.80
2023-05-20T06:17:52.756Z,9.30
2023-05-20T06:20:20.593Z,8.70
2023-05-20T06:22:48.335Z,9.10
2023-05-20T06:25:16.251Z,9.10
2023-05-20T06:27:43.958Z,9.40
2023-05-20T06:30:12.438Z,8.70
2023-05-20T06:32:40.362Z,9.50
2023-05-20T06:35:08.734Z,10.70
2023-05-20T06:37:36.539Z,10.20
2023-05-20T06:40:05.319Z,10.10
2023-05-20T06:42:33.007Z,9.90
2023-05-20T06:45:00.703Z,9.70
2023-05-20T06:47:28.870Z,9.20
2023-05-20T06:49:56.519Z,9.40
2023-05-20T06:52:24.163Z,8.90
2023-05-20T06:54:51.793Z,11.50
2023-05-20T06:57:19.542Z,9.70
2023-05-20T06:59:47.191Z,9.20
2023-05-20T07:02:14.983Z,8.90
2023-05-20T07:04:42.845Z,7.00
2023-05-20T07:07:10.540Z,10.10
2023-05-20T07:09:38.340Z,7.00
2023-05-20T07:12:06.871Z,8.80
2023-05-20T07:14:37.057Z,8.90
2023-05-20T07:17:06.022Z,12.40
2023-05-20T07:19:34.437Z,10.60
2023-05-20T07:22:02.375Z,11.60
2023-05-20T07:24:30.966Z,11.90
2023-05-20T07:27:03.077Z,12.20
2023-05-20T07:29:31.406Z,10.30
2023-05-20T07:32:01.784Z,11.40
2023-05-20T07:34:32.771Z,12.90
2023-05-20T07:37:03.632Z,12.40
2023-05-20T07:39:32.485Z,11.60
2023-05-20T07:42:00.440Z,10.40
2023-05-20T07:44:30.323Z,10.90
2023-05-20T07:46:58.608Z,9.70
2023-05-20T07:49:26.690Z,10.40
2023-05-20T07:51:54.927Z,12.00
2023-05-20T07:54:25.228Z,12.30
2023-05-20T07:56:53.106Z,13.30
2023-05-20T07:59:21.672Z,13.20
2023-05-20T08:01:49.978Z,12.30
2023-05-20T08:04:18.155Z,10.80
2023-05-20T08:06:46.823Z,12.70
2023-05-20T08:09:14.762Z,11.80
2023-05-20T08:11:42.535Z,12.80
2023-05-20T08:14:10.425Z,12.20
2023-05-20T08:16:38.420Z,12.20
2023-05-20T08:19:06.469Z,12.80
2023-05-20T08:21:35.483Z,12.40
2023-05-20T08:24:04.982Z,12.10
2023-05-20T08:26:32.841Z,13.70
2023-05-20T08:29:00.938Z,11.90
2023-05-20T08:31:28.905Z,11.90
2023-05-20T08:33:56.771Z,11.40
2023-05-20T08:36:24.762Z,13.00
2023-05-20T08:38:52.507Z,13.80
2023-05-20T08:41:22.483Z,12.90
2023-05-20T08:43:51.916Z,14.10
2023-05-20T08:46:22.140Z,13.30
2023-05-20T08:48:50.796Z,14.00
2023-05-20T08:51:23.918Z,13.20
2023-05-20T08:53:52.086Z,13.10
2023-05-20T08:56:21.938Z,12.80
2023-05-20T08:58:49.738Z,14.20
2023-05-20T09:01:18.166Z,12.90
2023-05-20T09:03:45.867Z,13.20
2023-05-20T09:06:21.330Z,13.30
2023-05-20T09:08:51.249Z,15.00
2023-05-20T09:11:22.375Z,14.20
2023-05-20T09:13:51.076Z,13.20
2023-05-20T09:16:19.022Z,12.70
2023-05-20T09:18:46.973Z,13.50
2023-05-20T09:21:14.994Z,13.90
2023-05-20T09:23:49.278Z,14.20
2023-05-20T09:26:18.759Z,12.90
2023-05-20T09:28:46.540Z,12.70
2023-05-20T09:31:15.072Z,13.80
2023-05-20T09:33:43.533Z,11.00
2023-05-20T09:36:11.687Z,11.30
2023-05-20T09:38:40.590Z,12.90
2023-05-20T09:41:15.545Z,13.10
2023-05-20T09:43:43.289Z,12.80
2023-05-20T09:46:11.657Z,13.40
2023-05-20T09:48:40.130Z,13.20
2023-05-20T09:51:12.087Z,12.50
2023-05-20T09:53:40.857Z,11.30
2023-05-20T09:56:09.329Z,13.60
2023-05-20T09:58:39.105Z,13.00
2023-05-20T10:01:07.976Z,13.50
2023-05-20T10:03:36.243Z,13.10
2023-05-20T10:07:02.207Z,10.20
2023-05-20T10:09:53.440Z,13.80
2023-05-20T10:12:36.347Z,12.90
2023-05-20T10:15:51.795Z,14.10
2023-05-20T10:18:55.630Z,13.50
2023-05-20T10:21:25.088Z,12.20
2023-05-20T10:23:52.991Z,10.70
2023-05-20T10:26:22.559Z,10.60
2023-05-20T10:28:50.268Z,12.90
2023-05-20T10:31:23.157Z,12.90
2023-05-20T10:33:54.146Z,13.50
2023-05-20T10:36:31.917Z,13.20
2023-05-20T10:39:00.837Z,12.10
2023-05-20T10:41:29.554Z,10.60
2023-05-20T10:44:06.072Z,10.50
2023-05-20T10:46:51.502Z,10.70
2023-05-20T10:49:26.129Z,10.70
2023-05-20T10:51:55.968Z,12.20
2023-05-20T10:54:24.131Z,11.10
2023-05-20T10:56:54.092Z,11.00
2023-05-20T10:59:22.771Z,12.00
2023-05-20T11:01:51.223Z,11.00
2023-05-20T11:04:19.843Z,11.10
2023-05-20T11:06:54.327Z,10.10
2023-05-20T11:09:23.403Z,8.40
2023-05-20T11:11:55.393Z,10.60
2023-05-20T11:14:23.207Z,11.50
2023-05-20T11:16:58.267Z,10.10
2023-05-20T11:19:27.589Z,10.90
2023-05-20T11:21:56.040Z,12.20
2023-05-20T11:24:28.709Z,9.70
2023-05-20T11:26:58.139Z,8.90
2023-05-20T11:29:27.304Z,10.50
2023-05-20T11:31:55.718Z,11.00
2023-05-20T11:34:26.433Z,9.20
2023-05-20T11:36:58.949Z,11.10
2023-05-20T11:39:30.411Z,11.80
2023-05-20T11:41:58.938Z,10.60
2023-05-20T11:44:26.617Z,11.00
2023-05-20T11:47:01.594Z,10.50
2023-05-20T11:49:30.860Z,11.10
2023-05-20T11:51:58.939Z,11.10
2023-05-20T11:54:26.647Z,11.50
2023-05-20T11:56:55.948Z,11.10
2023-05-20T11:59:25.164Z,9.80
2023-05-20T12:01:53.039Z,11.20
2023-05-20T12:04:21.022Z,11.30
2023-05-20T12:06:48.904Z,10.70
2023-05-20T12:09:16.917Z,11.30
2023-05-20T12:11:45.433Z,10.90
2023-05-20T12:14:13.185Z,11.20
2023-05-20T12:16:41.263Z,12.00
2023-05-20T12:19:09.545Z,11.10
2023-05-20T12:21:37.385Z,11.70
2023-05-20T12:24:07.121Z,11.70
2023-05-20T12:26:35.648Z,11.10
2023-05-20T12:29:03.696Z,12.30
2023-05-20T12:31:34.633Z,11.50
2023-05-20T12:34:02.960Z,11.00
2023-05-20T12:36:31.652Z,10.90
2023-05-20T12:38:59.368Z,11.70
2023-05-20T12:41:27.072Z,11.40
2023-05-20T12:43:55.049Z,12.00
2023-05-20T12:46:23.258Z,11.40
2023-05-20T12:48:50.947Z,11.50
2023-05-20T12:51:20.325Z,12.10
2023-05-20T12:53:48.177Z,12.10
2023-05-20T12:56:16.403Z,12.50
2023-05-20T12:58:44.036Z,12.10
2023-05-20T13:01:11.766Z,11.60
2023-05-20T13:03:39.580Z,11.20
2023-05-20T13:06:07.373Z,12.40
2023-05-20T13:08:35.116Z,12.50
2023-05-20T13:11:02.791Z,12.20
2023-05-20T13:13:30.680Z,11.20
2023-05-20T13:15:58.858Z,12.30
2023-05-20T13:18:26.622Z,12.90
2023-05-20T13:20:54.349Z,12.90
2023-05-20T13:23:22.038Z,12.80
2023-05-20T13:25:49.666Z,12.30
2023-05-20T13:28:20.776Z,12.50
2023-05-20T13:30:48.526Z,11.40
2023-05-20T13:33:16.372Z,12.00
2023-05-20T13:35:44.181Z,12.10
2023-05-20T13:38:11.892Z,13.40
2023-05-20T13:40:39.588Z,11.50
2023-05-20T13:43:07.247Z,11.10
2023-05-20T13:45:35.086Z,11.10
2023-05-20T13:48:03.413Z,11.30
2023-05-20T13:50:31.346Z,9.00
2023-05-20T13:52:58.969Z,10.50
2023-05-20T13:55:27.006Z,11.40
2023-05-20T13:57:55.621Z,11.30
2023-05-20T14:00:23.317Z,11.10
2023-05-20T14:02:51.096Z,11.70
2023-05-20T14:05:18.914Z,11.60
2023-05-20T14:07:46.640Z,11.80
2023-05-20T14:10:14.672Z,10.40
2023-05-20T14:12:48.017Z,11.20
2023-05-20T14:15:15.880Z,11.50
2023-05-20T14:17:43.618Z,10.50
2023-05-20T14:20:12.342Z,11.80
2023-05-20T14:22:40.157Z,11.20
2023-05-20T14:25:08.760Z,8.30
2023-05-20T14:27:36.568Z,11.90
2023-05-20T14:30:05.761Z,10.70
2023-05-20T14:32:33.501Z,11.80
2023-05-20T14:35:01.263Z,10.50
2023-05-20T14:37:29.064Z,10.50
2023-05-20T14:39:57.129Z,10.60
2023-05-20T14:42:25.152Z,11.20
2023-05-20T14:44:52.896Z,11.90
2023-05-20T14:47:22.177Z,11.00
2023-05-20T14:49:50.203Z,11.10
2023-05-20T14:52:18.940Z,10.50
2023-05-20T14:54:46.811Z,10.40
2023-05-20T14:57:16.162Z,12.30
2023-05-20T14:59:44.509Z,10.10
2023-05-20T15:02:15.460Z,11.40
2023-05-20T15:04:46.485Z,12.60
2023-05-20T15:07:15.820Z,11.10
2023-05-20T15:09:44.209Z,11.50
2023-05-20T15:12:11.918Z,11.50
2023-05-20T15:14:39.652Z,10.90
2023-05-20T15:17:07.770Z,9.90
2023-05-20T15:19:38.996Z,10.60
2023-05-20T15:22:09.274Z,11.50
2023-05-20T15:24:36.955Z,10.90
2023-05-20T15:27:05.099Z,10.60
2023-05-20T15:29:32.854Z,9.20
2023-05-20T15:32:00.550Z,8.20
2023-05-20T15:34:28.278Z,8.40
2023-05-20T15:36:55.992Z,6.70
2023-05-20T15:39:23.706Z,9.20
2023-05-20T15:41:52.934Z,9.50
2023-05-20T15:44:20.730Z,9.10
2023-05-20T15:46:48.418Z,9.20
2023-05-20T15:49:16.392Z,9.00
2023-05-20T15:51:52.211Z,8.70
2023-05-20T15:54:27.662Z,8.80
2023-05-20T15:56:55.803Z,10.30
2023-05-20T15:59:23.728Z,8.60
2023-05-20T16:01:51.474Z,9.50
2023-05-20T16:04:19.613Z,9.50
2023-05-20T16:06:47.512Z,9.00
2023-05-20T16:09:15.321Z,8.80
2023-05-20T16:11:43.012Z,8.70
2023-05-20T16:14:10.870Z,8.50
2023-05-20T16:16:38.616Z,8.90
2023-05-20T16:19:06.571Z,9.00
2023-05-20T16:21:34.607Z,9.30
2023-05-20T16:24:02.349Z,8.70
2023-05-20T16:26:31.493Z,8.30
2023-05-20T16:28:59.547Z,8.90
2023-05-20T16:31:27.279Z,9.10
2023-05-20T16:33:55.286Z,7.80
2023-05-20T16:36:23.598Z,8.90
2023-05-20T16:38:51.380Z,9.70
2023-05-20T16:41:19.320Z,10.30
2023-05-20T16:43:47.167Z,10.50
2023-05-20T16:46:15.179Z,9.70
2023-05-20T16:48:42.947Z,10.00
2023-05-20T16:51:10.709Z,10.20
2023-05-20T16:53:38.486Z,10.50
2023-05-20T16:56:08.437Z,9.80
2023-05-20T16:58:36.311Z,9.00
2023-05-20T17:01:04.083Z,10.10
2023-05-20T17:03:32.070Z,10.30
2023-05-20T17:05:59.754Z,10.60
2023-05-20T17:08:27.626Z,10.10
2023-05-20T17:10:56.832Z,11.20
2023-05-20T17:13:24.494Z,10.30
2023-05-20T17:15:52.145Z,10.20
2023-05-20T17:18:19.820Z,10.10
2023-05-20T17:20:47.569Z,10.30
2023-05-20T17:23:15.661Z,10.00
2023-05-20T17:25:43.536Z,10.20
2023-05-20T17:28:11.517Z,10.10
2023-05-20T17:30:39.290Z,10.70
2023-05-20T17:33:07.033Z,10.60
2023-05-20T17:35:35.722Z,11.80
2023-05-20T17:38:03.461Z,10.80
2023-05-20T17:40:34.909Z,11.10
2023-05-20T17:43:02.880Z,10.80
2023-05-20T17:45:30.703Z,11.10
2023-05-20T17:47:58.933Z,11.30
2023-05-20T17:50:26.880Z,11.10
2023-05-20T17:52:54.642Z,10.40
2023-05-20T17:55:22.350Z,11.50
2023-05-20T17:57:50.183Z,11.60
2023-05-20T18:00:21.368Z,11.00
2023-05-20T18:02:49.370Z,11.60
2023-05-20T18:05:17.466Z,10.90
2023-05-20T18:07:45.565Z,11.30
2023-05-20T18:10:14.350Z,12.20
2023-05-20T18:12:43.033Z,11.50
2023-05-20T18:15:11.224Z,11.90
2023-05-20T18:17:40.554Z,12.00
2023-05-20T18:20:12.424Z,11.90
2023-05-20T18:22:45.173Z,12.20
2023-05-20T18:25:14.377Z,11.60
2023-05-20T18:27:42.944Z,11.90
2023-05-20T18:30:10.989Z,13.00
2023-05-20T18:32:39.438Z,12.00
2023-05-20T18:35:08.228Z,12.50
2023-05-20T18:37:36.253Z,12.40
2023-05-20T18:40:06.421Z,13.30
2023-05-20T18:42:34.156Z,15.70
2023-05-20T18:45:02.211Z,18.00
2023-05-20T18:47:30.031Z,19.90
2023-05-20T18:49:57.795Z,20.80
2023-05-20T18:52:25.470Z,19.90
2023-05-20T18:54:53.451Z,18.40
2023-05-20T18:57:22.705Z,19.40
2023-05-20T18:59:50.652Z,16.80
2023-05-20T19:02:18.559Z,17.80
2023-05-20T19:04:46.460Z,16.50
2023-05-20T19:07:14.204Z,15.00
2023-05-20T19:09:42.118Z,15.10
2023-05-20T19:12:09.783Z,14.20
2023-05-20T19:14:37.481Z,13.30
2023-05-20T19:17:05.632Z,13.90
2023-05-20T19:19:33.559Z,13.70
2023-05-20T19:22:01.522Z,13.50
2023-05-20T19:24:31.849Z,14.70
2023-05-20T19:27:01.816Z,14.60
2023-05-20T19:29:29.524Z,13.40
2023-05-20T19:31:57.797Z,14.20
2023-05-20T19:34:25.632Z,14.10
2023-05-20T19:36:53.603Z,14.20
2023-05-20T19:39:21.982Z,14.10
2023-05-20T19:41:50.799Z,14.60
2023-05-20T19:44:19.075Z,13.50
2023-05-20T19:46:47.521Z,12.80
2023-05-20T19:49:15.225Z,13.20
2023-05-20T19:51:43.038Z,10.70
2023-05-20T19:54:12.621Z,11.40
2023-05-20T19:56:40.529Z,10.50
2023-05-20T19:59:08.177Z,10.60
2023-05-20T20:01:35.932Z,11.20
2023-05-20T20:04:04.113Z,11.40
2023-05-20T20:06:31.814Z,11.00
2023-05-20T20:08:59.828Z,12.10
2023-05-20T20:11:27.740Z,12.30
2023-05-20T20:13:55.496Z,12.30
2023-05-20T20:16:23.335Z,12.80
2023-05-20T20:18:51.795Z,12.90
2023-05-20T20:21:19.595Z,12.80
2023-05-20T20:23:47.256Z,13.60
2023-05-20T20:26:14.961Z,14.10
2023-05-20T20:28:42.726Z,13.90
2023-05-20T20:31:10.523Z,15.00
2023-05-20T20:33:38.241Z,12.60
2023-05-20T20:36:06.188Z,11.50
2023-05-20T20:38:33.974Z,10.50
2023-05-20T20:41:03.883Z,10.60
2023-05-20T20:43:34.948Z,10.50
2023-05-20T20:46:02.698Z,10.60
2023-05-20T20:48:30.400Z,9.40
2023-05-20T20:50:59.153Z,9.90
2023-05-20T20:53:26.858Z,9.50
2023-05-20T20:55:56.964Z,9.90
2023-05-20T20:58:24.976Z,10.00
2023-05-20T21:00:53.390Z,9.80
2023-05-20T21:03:24.015Z,10.90
2023-05-20T21:05:51.986Z,8.80
2023-05-20T21:08:22.207Z,9.00
2023-05-20T21:10:49.907Z,8.50
2023-05-20T21:13:17.654Z,9.60
2023-05-20T21:15:46.625Z,8.80
2023-05-20T21:18:21.689Z,8.90
2023-05-20T21:20:53.907Z,8.90
2023-05-20T21:23:23.224Z,9.10
2023-05-20T21:25:50.930Z,8.80
2023-05-20T21:28:18.658Z,8.70
2023-05-20T21:30:46.363Z,8.50
2023-05-20T21:33:14.155Z,8.10
2023-05-20T21:35:41.861Z,8.90
2023-05-20T21:38:10.081Z,9.40
2023-05-20T21:40:37.811Z,8.50
2023-05-20T21:43:05.531Z,8.00
2023-05-20T21:45:33.431Z,8.30
2023-05-20T21:48:01.267Z,7.70
2023-05-20T21:50:29.003Z,6.60
2023-05-20T21:52:56.638Z,7.70
2023-05-20T21:55:24.388Z,8.30
2023-05-20T21:57:52.661Z,8.30
2023-05-20T22:00:20.719Z,6.30
2023-05-20T22:02:49.070Z,8.50
2023-05-20T22:05:17.547Z,8.70
2023-05-20T22:07:45.233Z,7.40
2023-05-20T22:10:14.220Z,7.80
2023-05-20T22:12:44.722Z,8.20
2023-05-20T22:15:13.202Z,7.80
2023-05-20T22:17:41.012Z,8.40
2023-05-20T22:20:11.159Z,7.40
2023-05-20T22:22:39.266Z,8.60
2023-05-20T22:25:07.690Z,8.90
2023-05-20T22:27:35.387Z,7.90
2023-05-20T22:30:06.036Z,8.70
2023-05-20T22:32:34.362Z,7.90
2023-05-20T22:35:02.751Z,7.90
2023-05-20T22:37:30.498Z,8.60
2023-05-20T22:39:58.170Z,8.60
2023-05-20T22:42:26.155Z,8.40
2023-05-20T22:44:53.839Z,7.80
2023-05-20T22:47:21.561Z,8.50
2023-05-20T22:49:49.210Z,8.50
2023-05-20T22:52:17.466Z,8.60
2023-05-20T22:54:45.273Z,9.30
2023-05-20T22:57:12.966Z,8.70
2023-05-20T22:59:40.909Z,8.80
2023-05-20T23:02:08.805Z,8.10
2023-05-20T23:04:36.534Z,7.70
2023-05-20T23:07:05.704Z,8.10
2023-05-20T23:09:33.387Z,7.40
2023-05-20T23:12:01.142Z,8.20
2023-05-20T23:14:28.921Z,8.00
2023-05-20T23:16:56.644Z,7.90
2023-05-20T23:19:24.489Z,6.50
2023-05-20T23:21:52.291Z,8.40
2023-05-20T23:24:19.989Z,7.70
2023-05-20T23:26:47.684Z,8.00
2023-05-20T23:29:15.569Z,7.90
2023-05-20T23:31:43.241Z,7.60
2023-05-20T23:34:11.101Z,7.30
2023-05-20T23:36:42.184Z,7.20
2023-05-20T23:39:09.965Z,8.30
2023-05-20T23:41:37.676Z,6.30
2023-05-20T23:44:05.374Z,7.90
2023-05-20T23:46:33.082Z,8.50
2023-05-20T23:49:01.828Z,7.60
2023-05-20T23:51:29.519Z,7.50
2023-05-20T23:53:57.418Z,8.00
2023-05-20T23:56:25.040Z,7.50
2023-05-20T23:58:52.765Z,7.50
